MLM51 LSZR-LQBK
Flight info
| Callsign | MLM51 |
|---|---|
| Flight time | 0h 56m |
| Altitude | 39000 |
| Route | BEMKI T23 BIRGI DCT NIPEL DCT NOVLO |
| Aircraft | A319/M-SDE3FGHIRWY/LB1 |
Departure
| Time | 2026-05-04 18:29 |
|---|---|
| Airport | Sankt Gallen Altenrhein Airport (LSZR) |
Arrival
| Time | 2026-05-04 19:26 |
|---|---|
| Airport | Banja Luka International Airport (LQBK) |
| Time | Latitude | Longitude | Altitude | Speed | Heading |
|---|---|---|---|---|---|
| 2026-05-04 18:20 | 47.48721 | 9.55248 | 1315 ft | 0 kts | 5° |
| 2026-05-04 18:22 | 47.48722 | 9.55249 | 1315 ft | 0 kts | 10° |
| 2026-05-04 18:22 | 47.48726 | 9.55254 | 1315 ft | 2 kts | 32° |
| 2026-05-04 18:22 | 47.48733 | 9.55291 | 1315 ft | 6 kts | 99° |
| 2026-05-04 18:23 | 47.48702 | 9.55341 | 1315 ft | 8 kts | 171° |
| 2026-05-04 18:23 | 47.48686 | 9.55338 | 1315 ft | 0 kts | 187° |
| 2026-05-04 18:24 | 47.48685 | 9.55338 | 1315 ft | 1 kts | 187° |
| 2026-05-04 18:25 | 47.48652 | 9.55332 | 1315 ft | 9 kts | 187° |
| 2026-05-04 18:25 | 47.48582 | 9.55352 | 1318 ft | 12 kts | 122° |
| 2026-05-04 18:25 | 47.48568 | 9.55479 | 1318 ft | 14 kts | 98° |
| 2026-05-04 18:25 | 47.48551 | 9.55637 | 1317 ft | 20 kts | 99° |
| 2026-05-04 18:26 | 47.48525 | 9.55880 | 1319 ft | 25 kts | 99° |
| 2026-05-04 18:26 | 47.48497 | 9.56146 | 1315 ft | 27 kts | 98° |
| 2026-05-04 18:26 | 47.48467 | 9.56427 | 1314 ft | 28 kts | 99° |
| 2026-05-04 18:26 | 47.48436 | 9.56721 | 1314 ft | 29 kts | 98° |
| 2026-05-04 18:27 | 47.48416 | 9.56921 | 1315 ft | 16 kts | 98° |
| 2026-05-04 18:27 | 47.48418 | 9.57024 | 1317 ft | 8 kts | 71° |
| 2026-05-04 18:27 | 47.48405 | 9.57025 | 1317 ft | 4 kts | 274° |
| 2026-05-04 18:27 | 47.48406 | 9.57018 | 1317 ft | 0 kts | 276° |
| 2026-05-04 18:29 | 47.48429 | 9.56790 | 1314 ft | 67 kts | 279° |
| 2026-05-04 18:29 | 47.48545 | 9.55651 | 1328 ft | 151 kts | 279° |
| 2026-05-04 18:29 | 47.48698 | 9.54302 | 1983 ft | 151 kts | 281° |
| 2026-05-04 18:30 | 47.49467 | 9.51918 | 3820 ft | 137 kts | 323° |
| 2026-05-04 18:30 | 47.50450 | 9.51425 | 4212 ft | 165 kts | 354° |
| 2026-05-04 18:30 | 47.51655 | 9.51913 | 4601 ft | 194 kts | 33° |
| 2026-05-04 18:31 | 47.52710 | 9.53228 | 5247 ft | 201 kts | 40° |
| 2026-05-04 18:31 | 47.53786 | 9.54578 | 5940 ft | 205 kts | 41° |
| 2026-05-04 18:31 | 47.54890 | 9.55948 | 6635 ft | 208 kts | 41° |
| 2026-05-04 18:31 | 47.56011 | 9.57333 | 7300 ft | 212 kts | 41° |
| 2026-05-04 18:32 | 47.57152 | 9.58739 | 7989 ft | 214 kts | 41° |
| 2026-05-04 18:32 | 47.58301 | 9.60154 | 8666 ft | 217 kts | 41° |
| 2026-05-04 18:32 | 47.59472 | 9.61602 | 9352 ft | 221 kts | 43° |
| 2026-05-04 18:32 | 47.60454 | 9.63419 | 9837 ft | 236 kts | 68° |
| 2026-05-04 18:33 | 47.60990 | 9.65824 | 10250 ft | 258 kts | 78° |
| 2026-05-04 18:33 | 47.61503 | 9.68498 | 10718 ft | 282 kts | 77° |
| 2026-05-04 18:33 | 47.62070 | 9.71415 | 11164 ft | 306 kts | 77° |
| 2026-05-04 18:33 | 47.62689 | 9.74565 | 11574 ft | 331 kts | 76° |
| 2026-05-04 18:34 | 47.63361 | 9.77960 | 11934 ft | 355 kts | 76° |
| 2026-05-04 18:34 | 47.64081 | 9.81579 | 12288 ft | 376 kts | 76° |
| 2026-05-04 18:34 | 47.64835 | 9.85336 | 12963 ft | 385 kts | 75° |
| 2026-05-04 18:34 | 47.65604 | 9.89174 | 13754 ft | 390 kts | 76° |
| 2026-05-04 18:35 | 47.66195 | 9.93107 | 14449 ft | 393 kts | 88° |
| 2026-05-04 18:35 | 47.65982 | 9.97122 | 15143 ft | 392 kts | 107° |
| 2026-05-04 18:35 | 47.65002 | 10.00885 | 15856 ft | 393 kts | 117° |
| 2026-05-04 18:35 | 47.63870 | 10.04596 | 16584 ft | 397 kts | 117° |
| 2026-05-04 18:36 | 47.62717 | 10.08344 | 17284 ft | 402 kts | 117° |
| 2026-05-04 18:36 | 47.61547 | 10.12140 | 17984 ft | 407 kts | 117° |
| 2026-05-04 18:36 | 47.60367 | 10.15988 | 18624 ft | 412 kts | 117° |
| 2026-05-04 18:37 | 47.60028 | 10.17102 | 18552 ft | 418 kts | 118° |
| 2026-05-04 18:37 | 47.58740 | 10.21121 | 18581 ft | 436 kts | 118° |
| 2026-05-04 18:37 | 47.57472 | 10.25107 | 19642 ft | 424 kts | 118° |
| 2026-05-04 18:38 | 47.56217 | 10.29058 | 20356 ft | 424 kts | 118° |
| 2026-05-04 18:38 | 47.54954 | 10.33024 | 20972 ft | 427 kts | 118° |
| 2026-05-04 18:38 | 47.53678 | 10.37015 | 21537 ft | 431 kts | 118° |
| 2026-05-04 18:38 | 47.52392 | 10.41028 | 22074 ft | 434 kts | 118° |
| 2026-05-04 18:39 | 47.51091 | 10.45068 | 22602 ft | 437 kts | 118° |
| 2026-05-04 18:39 | 47.49774 | 10.49133 | 23122 ft | 440 kts | 118° |
| 2026-05-04 18:39 | 47.48437 | 10.53230 | 23592 ft | 444 kts | 118° |
| 2026-05-04 18:39 | 47.47089 | 10.57346 | 24047 ft | 446 kts | 118° |
| 2026-05-04 18:40 | 47.45733 | 10.61475 | 24502 ft | 448 kts | 118° |
| 2026-05-04 18:40 | 47.44360 | 10.65635 | 24943 ft | 451 kts | 118° |
| 2026-05-04 18:40 | 47.42980 | 10.69789 | 25377 ft | 453 kts | 118° |
| 2026-05-04 18:40 | 47.41585 | 10.73974 | 25814 ft | 455 kts | 118° |
| 2026-05-04 18:41 | 47.40180 | 10.78173 | 26228 ft | 457 kts | 118° |
| 2026-05-04 18:41 | 47.38765 | 10.82386 | 26633 ft | 459 kts | 118° |
| 2026-05-04 18:41 | 47.37338 | 10.86611 | 27008 ft | 462 kts | 118° |
| 2026-05-04 18:41 | 47.36585 | 10.88839 | 27213 ft | 463 kts | 118° |
| 2026-05-04 18:42 | 47.35163 | 10.93039 | 27585 ft | 465 kts | 118° |
| 2026-05-04 18:42 | 47.33708 | 10.97307 | 27953 ft | 467 kts | 118° |
| 2026-05-04 18:42 | 47.32512 | 11.01771 | 28316 ft | 472 kts | 105° |
| 2026-05-04 18:42 | 47.32109 | 11.06587 | 28661 ft | 477 kts | 90° |
| 2026-05-04 18:43 | 47.32245 | 11.11483 | 29014 ft | 479 kts | 88° |
| 2026-05-04 18:43 | 47.32413 | 11.16384 | 29530 ft | 477 kts | 88° |
| 2026-05-04 18:43 | 47.32590 | 11.21323 | 30053 ft | 476 kts | 88° |
| 2026-05-04 18:43 | 47.32749 | 11.26178 | 30503 ft | 474 kts | 90° |
| 2026-05-04 18:44 | 47.32425 | 11.30983 | 30905 ft | 471 kts | 104° |
| 2026-05-04 18:44 | 47.31774 | 11.34022 | 31168 ft | 468 kts | 113° |
| 2026-05-04 18:44 | 47.30088 | 11.39930 | 31736 ft | 467 kts | 115° |
| 2026-05-04 18:44 | 47.28807 | 11.44322 | 32172 ft | 466 kts | 115° |
| 2026-05-04 18:45 | 47.27517 | 11.48696 | 32615 ft | 465 kts | 115° |
| 2026-05-04 18:45 | 47.26226 | 11.53058 | 33046 ft | 464 kts | 116° |
| 2026-05-04 18:45 | 47.24940 | 11.57403 | 33481 ft | 463 kts | 116° |
| 2026-05-04 18:45 | 47.23656 | 11.61746 | 33947 ft | 462 kts | 116° |
| 2026-05-04 18:46 | 47.22377 | 11.66076 | 34353 ft | 461 kts | 116° |
| 2026-05-04 18:46 | 47.21099 | 11.70400 | 34704 ft | 461 kts | 116° |
| 2026-05-04 18:46 | 47.19819 | 11.74729 | 35063 ft | 462 kts | 116° |
| 2026-05-04 18:46 | 47.18539 | 11.79062 | 35409 ft | 462 kts | 116° |
| 2026-05-04 18:47 | 47.17256 | 11.83396 | 35738 ft | 463 kts | 116° |
| 2026-05-04 18:47 | 47.15970 | 11.87727 | 36071 ft | 463 kts | 116° |
| 2026-05-04 18:47 | 47.14677 | 11.92064 | 36378 ft | 464 kts | 116° |
| 2026-05-04 18:47 | 47.13380 | 11.96403 | 36678 ft | 464 kts | 116° |
| 2026-05-04 18:48 | 47.12078 | 12.00751 | 36970 ft | 465 kts | 116° |
| 2026-05-04 18:48 | 47.10775 | 12.05095 | 37284 ft | 465 kts | 116° |
| 2026-05-04 18:48 | 47.09475 | 12.09432 | 37633 ft | 465 kts | 116° |
| 2026-05-04 18:48 | 47.08168 | 12.13785 | 37977 ft | 466 kts | 116° |
| 2026-05-04 18:49 | 47.06859 | 12.18130 | 38326 ft | 465 kts | 116° |
| 2026-05-04 18:49 | 47.05530 | 12.22524 | 38667 ft | 465 kts | 116° |
| 2026-05-04 18:49 | 47.04217 | 12.26862 | 38937 ft | 465 kts | 115° |
| 2026-05-04 18:50 | 47.01590 | 12.35542 | 39063 ft | 466 kts | 115° |
| 2026-05-04 18:50 | 46.98963 | 12.44167 | 39065 ft | 466 kts | 115° |
| 2026-05-04 18:51 | 46.96321 | 12.52828 | 39062 ft | 466 kts | 115° |
| 2026-05-04 18:51 | 46.93778 | 12.61115 | 39059 ft | 465 kts | 116° |
| 2026-05-04 18:52 | 46.91125 | 12.69750 | 39060 ft | 466 kts | 115° |
| 2026-05-04 18:52 | 46.88466 | 12.78386 | 39064 ft | 466 kts | 116° |
| 2026-05-04 18:53 | 46.86256 | 12.85557 | 39069 ft | 466 kts | 115° |
| 2026-05-04 18:53 | 46.83583 | 12.94190 | 39078 ft | 466 kts | 116° |
| 2026-05-04 18:54 | 46.80900 | 13.02807 | 39080 ft | 466 kts | 116° |
| 2026-05-04 18:54 | 46.78197 | 13.11475 | 39083 ft | 466 kts | 116° |
| 2026-05-04 18:55 | 46.75530 | 13.19978 | 39084 ft | 466 kts | 116° |
| 2026-05-04 18:55 | 46.71468 | 13.32847 | 39086 ft | 466 kts | 116° |
| 2026-05-04 18:56 | 46.68762 | 13.41418 | 39082 ft | 466 kts | 116° |
| 2026-05-04 18:56 | 46.66042 | 13.49984 | 39080 ft | 466 kts | 116° |
| 2026-05-04 18:57 | 46.63322 | 13.58534 | 39078 ft | 466 kts | 116° |
| 2026-05-04 18:57 | 46.60598 | 13.67084 | 39080 ft | 466 kts | 116° |
| 2026-05-04 18:58 | 46.57860 | 13.75635 | 39081 ft | 466 kts | 116° |
| 2026-05-04 18:58 | 46.55118 | 13.84172 | 39079 ft | 466 kts | 116° |
| 2026-05-04 18:59 | 46.52370 | 13.92695 | 39072 ft | 466 kts | 116° |
| 2026-05-04 18:59 | 46.49799 | 14.00629 | 39067 ft | 466 kts | 116° |
| 2026-05-04 19:00 | 46.46664 | 14.08851 | 39065 ft | 465 kts | 122° |
| 2026-05-04 19:00 | 46.43350 | 14.16916 | 39066 ft | 466 kts | 122° |
| 2026-05-04 19:01 | 46.40007 | 14.25019 | 39087 ft | 466 kts | 122° |
| 2026-05-04 19:01 | 46.36679 | 14.33077 | 39087 ft | 466 kts | 122° |
| 2026-05-04 19:02 | 46.33349 | 14.41123 | 39088 ft | 466 kts | 122° |
| 2026-05-04 19:02 | 46.30163 | 14.48784 | 39089 ft | 466 kts | 122° |
| 2026-05-04 19:03 | 46.26817 | 14.56818 | 39093 ft | 466 kts | 122° |
| 2026-05-04 19:03 | 46.23467 | 14.64847 | 39093 ft | 467 kts | 122° |
| 2026-05-04 19:04 | 46.20105 | 14.72876 | 39080 ft | 468 kts | 122° |
| 2026-05-04 19:04 | 46.16725 | 14.80903 | 39069 ft | 468 kts | 122° |
| 2026-05-04 19:05 | 46.13341 | 14.88937 | 39064 ft | 469 kts | 122° |
| 2026-05-04 19:05 | 46.09956 | 14.96958 | 39064 ft | 468 kts | 122° |
| 2026-05-04 19:06 | 46.06558 | 15.04966 | 39060 ft | 468 kts | 122° |
| 2026-05-04 19:06 | 46.03156 | 15.12959 | 39056 ft | 468 kts | 122° |
| 2026-05-04 19:07 | 45.99749 | 15.20942 | 39049 ft | 468 kts | 122° |
| 2026-05-04 19:07 | 45.96337 | 15.28920 | 39063 ft | 469 kts | 122° |
| 2026-05-04 19:08 | 45.92903 | 15.36949 | 39066 ft | 468 kts | 122° |
| 2026-05-04 19:08 | 45.89485 | 15.44909 | 39064 ft | 468 kts | 122° |
| 2026-05-04 19:09 | 45.86061 | 15.52858 | 39065 ft | 468 kts | 122° |
| 2026-05-04 19:09 | 45.82624 | 15.60787 | 39066 ft | 468 kts | 122° |
| 2026-05-04 19:10 | 45.80900 | 15.64756 | 38835 ft | 469 kts | 122° |
| 2026-05-04 19:10 | 45.79171 | 15.68745 | 37950 ft | 473 kts | 122° |
| 2026-05-04 19:10 | 45.77430 | 15.72757 | 37118 ft | 475 kts | 122° |
| 2026-05-04 19:10 | 45.75681 | 15.76777 | 36318 ft | 475 kts | 122° |
| 2026-05-04 19:11 | 45.73928 | 15.80792 | 35513 ft | 475 kts | 122° |
| 2026-05-04 19:11 | 45.72178 | 15.84800 | 34725 ft | 475 kts | 122° |
| 2026-05-04 19:11 | 45.70429 | 15.88812 | 33903 ft | 475 kts | 122° |
| 2026-05-04 19:11 | 45.68676 | 15.92824 | 32930 ft | 476 kts | 122° |
| 2026-05-04 19:12 | 45.66916 | 15.96836 | 31890 ft | 478 kts | 122° |
| 2026-05-04 19:12 | 45.63357 | 16.04931 | 29623 ft | 484 kts | 122° |
| 2026-05-04 19:12 | 45.61555 | 16.09011 | 28307 ft | 487 kts | 122° |
| 2026-05-04 19:13 | 45.59743 | 16.13107 | 26976 ft | 489 kts | 122° |
| 2026-05-04 19:13 | 45.57927 | 16.17213 | 25641 ft | 491 kts | 122° |
| 2026-05-04 19:13 | 45.56100 | 16.21348 | 24270 ft | 492 kts | 122° |
| 2026-05-04 19:13 | 45.54278 | 16.25476 | 23190 ft | 488 kts | 122° |
| 2026-05-04 19:14 | 45.52482 | 16.29529 | 22206 ft | 479 kts | 122° |
| 2026-05-04 19:14 | 45.50711 | 16.33510 | 21246 ft | 471 kts | 123° |
| 2026-05-04 19:14 | 45.48969 | 16.37420 | 20315 ft | 464 kts | 123° |
| 2026-05-04 19:14 | 45.47255 | 16.41268 | 19426 ft | 457 kts | 123° |
| 2026-05-04 19:15 | 45.45563 | 16.45065 | 18570 ft | 450 kts | 123° |
| 2026-05-04 19:15 | 45.43875 | 16.48854 | 17661 ft | 444 kts | 123° |
| 2026-05-04 19:15 | 45.42257 | 16.52488 | 16784 ft | 438 kts | 123° |
| 2026-05-04 19:15 | 45.40613 | 16.56163 | 15923 ft | 431 kts | 123° |
| 2026-05-04 19:16 | 45.39011 | 16.59733 | 15214 ft | 424 kts | 123° |
| 2026-05-04 19:16 | 45.37457 | 16.63190 | 15048 ft | 405 kts | 123° |
| 2026-05-04 19:16 | 45.35971 | 16.66496 | 14919 ft | 388 kts | 123° |
| 2026-05-04 19:16 | 45.34549 | 16.69659 | 14799 ft | 371 kts | 124° |
| 2026-05-04 19:17 | 45.33187 | 16.72682 | 14677 ft | 356 kts | 124° |
| 2026-05-04 19:17 | 45.31880 | 16.75584 | 14557 ft | 342 kts | 124° |
| 2026-05-04 19:17 | 45.30621 | 16.78376 | 14437 ft | 330 kts | 124° |
| 2026-05-04 19:17 | 45.29405 | 16.81070 | 14313 ft | 319 kts | 124° |
| 2026-05-04 19:18 | 45.28219 | 16.83683 | 14098 ft | 312 kts | 124° |
| 2026-05-04 19:18 | 45.27045 | 16.86263 | 13787 ft | 310 kts | 124° |
| 2026-05-04 19:18 | 45.26275 | 16.87956 | 13554 ft | 308 kts | 124° |
| 2026-05-04 19:18 | 45.25848 | 16.88895 | 13443 ft | 304 kts | 124° |
| 2026-05-04 19:19 | 45.24924 | 16.90925 | 13132 ft | 297 kts | 124° |
| 2026-05-04 19:19 | 45.23819 | 16.93361 | 12625 ft | 293 kts | 124° |
| 2026-05-04 19:19 | 45.22656 | 16.95705 | 12102 ft | 289 kts | 133° |
| 2026-05-04 19:19 | 45.21286 | 16.97717 | 11706 ft | 281 kts | 136° |
| 2026-05-04 19:20 | 45.19931 | 16.99694 | 11194 ft | 279 kts | 135° |
| 2026-05-04 19:20 | 45.18588 | 17.01665 | 10679 ft | 277 kts | 135° |
| 2026-05-04 19:20 | 45.17373 | 17.03765 | 10165 ft | 276 kts | 123° |
| 2026-05-04 19:20 | 45.16567 | 17.06230 | 9621 ft | 276 kts | 110° |
| 2026-05-04 19:21 | 45.15965 | 17.08809 | 9032 ft | 275 kts | 110° |
| 2026-05-04 19:21 | 45.15355 | 17.11369 | 8441 ft | 274 kts | 110° |
| 2026-05-04 19:21 | 45.14741 | 17.13920 | 7860 ft | 273 kts | 110° |
| 2026-05-04 19:21 | 45.14126 | 17.16458 | 7285 ft | 272 kts | 110° |
| 2026-05-04 19:22 | 45.13512 | 17.18990 | 6716 ft | 271 kts | 110° |
| 2026-05-04 19:22 | 45.12904 | 17.21503 | 6047 ft | 268 kts | 110° |
| 2026-05-04 19:22 | 45.12170 | 17.23912 | 5344 ft | 264 kts | 128° |
| 2026-05-04 19:22 | 45.10754 | 17.25411 | 4640 ft | 253 kts | 162° |
| 2026-05-04 19:23 | 45.09035 | 17.25989 | 3791 ft | 250 kts | 170° |
| 2026-05-04 19:23 | 45.07336 | 17.26354 | 3068 ft | 243 kts | 172° |
| 2026-05-04 19:23 | 45.05667 | 17.26737 | 2366 ft | 238 kts | 170° |
| 2026-05-04 19:23 | 45.04127 | 17.27135 | 2175 ft | 211 kts | 169° |
| 2026-05-04 19:24 | 45.02740 | 17.27500 | 1906 ft | 194 kts | 169° |
| 2026-05-04 19:24 | 45.01468 | 17.27833 | 1651 ft | 177 kts | 169° |
| 2026-05-04 19:24 | 45.00348 | 17.28126 | 1431 ft | 152 kts | 169° |
| 2026-05-04 19:24 | 44.99361 | 17.28384 | 1238 ft | 139 kts | 169° |
| 2026-05-04 19:25 | 44.98428 | 17.28628 | 1060 ft | 134 kts | 170° |
| 2026-05-04 19:25 | 44.97517 | 17.28866 | 883 ft | 133 kts | 171° |
| 2026-05-04 19:25 | 44.96917 | 17.29022 | 760 ft | 132 kts | 171° |
| 2026-05-04 19:25 | 44.96013 | 17.29267 | 564 ft | 132 kts | 170° |
| 2026-05-04 19:26 | 44.95118 | 17.29507 | 411 ft | 131 kts | 170° |
| 2026-05-04 19:26 | 44.94365 | 17.29694 | 394 ft | 85 kts | 169° |
| 2026-05-04 19:26 | 44.93950 | 17.29800 | 399 ft | 41 kts | 169° |
| 2026-05-04 19:26 | 44.93721 | 17.29862 | 401 ft | 27 kts | 166° |
| 2026-05-04 19:27 | 44.93597 | 17.29972 | 402 ft | 14 kts | 130° |
| 2026-05-04 19:27 | 44.93544 | 17.30087 | 404 ft | 14 kts | 124° |
| 2026-05-04 19:27 | 44.93469 | 17.30172 | 405 ft | 14 kts | 170° |
| 2026-05-04 19:27 | 44.93394 | 17.30195 | 406 ft | 9 kts | 172° |
| 2026-05-04 19:28 | 44.93347 | 17.30225 | 407 ft | 7 kts | 105° |
| 2026-05-04 19:28 | 44.93355 | 17.30272 | 407 ft | 4 kts | 48° |
| 2026-05-04 19:28 | 44.93363 | 17.30273 | 407 ft | 0 kts | 3° |